Time;durP1;ratioP1;P1;durP2;ratioP2;P2;SDS_P1;SDS_P2;PMS_P1;PMS_P2;Temp;Humidity;BMP_temperature;BMP_pressure;BME280_temperature;BME280_humidity;BME280_pressure;Samples;Min_cycle;Max_cycle;Signal;HPM_P1;HPM_P2
2021/04/18 00:02:14;;;;;;;11.33;4.17;;;;;;;6.26;73.80;102030.91;4975530;28;20073;-71
2021/04/18 00:04:40;;;;;;;8.10;3.53;;;;;;;6.22;73.76;102034.69;4992664;28;20344;-71
2021/04/18 00:07:06;;;;;;;14.67;4.33;;;;;;;6.12;72.95;102033.63;4975486;28;20129;-71
2021/04/18 00:09:31;;;;;;;12.65;4.22;;;;;;;6.12;73.21;102031.81;4992390;28;20044;-71
2021/04/18 00:11:57;;;;;;;11.40;4.10;;;;;;;6.13;72.55;102035.31;4992538;28;20046;-72
2021/04/18 00:14:25;;;;;;;10.10;4.63;;;;;;;6.08;72.83;102032.13;4975251;28;20408;-72
2021/04/18 00:16:51;;;;;;;9.45;3.55;;;;;;;6.02;72.86;102027.25;4975161;28;20030;-71
2021/04/18 00:19:16;;;;;;;17.98;3.53;;;;;;;6.02;72.84;102019.28;4992047;28;20104;-71
2021/04/18 00:21:42;;;;;;;12.47;3.77;;;;;;;5.97;73.06;102029.31;4992466;28;20030;-71
2021/04/18 00:24:08;;;;;;;19.40;4.50;;;;;;;5.98;73.40;102026.59;4992295;28;20046;-71
2021/04/18 00:26:33;;;;;;;7.88;3.53;;;;;;;5.99;73.34;102025.63;4991991;28;20049;-72
2021/04/18 00:28:58;;;;;;;8.57;3.43;;;;;;;6.00;72.84;102014.06;4991715;28;20041;-71
2021/04/18 00:31:24;;;;;;;8.43;3.40;;;;;;;6.03;72.69;102013.03;4992310;28;20030;-71
2021/04/18 00:33:49;;;;;;;6.82;3.65;;;;;;;5.92;72.77;102021.63;4975010;28;20030;-71
2021/04/18 00:36:15;;;;;;;7.60;3.07;;;;;;;5.93;72.51;102016.25;4974969;28;20371;-71
2021/04/18 00:38:40;;;;;;;14.10;4.47;;;;;;;5.93;72.44;102020.72;4974722;28;20038;-71
2021/04/18 00:41:06;;;;;;;7.63;3.57;;;;;;;5.80;73.27;102018.00;4975032;28;20061;-71
2021/04/18 00:43:31;;;;;;;9.23;3.53;;;;;;;5.76;72.80;102016.53;4991775;28;20049;-71
2021/04/18 00:45:56;;;;;;;8.00;4.43;;;;;;;5.73;73.41;102016.69;4974711;28;20087;-71
2021/04/18 00:48:22;;;;;;;9.67;3.40;;;;;;;5.73;72.83;102022.00;4974397;28;20084;-72
2021/04/18 00:50:47;;;;;;;7.80;3.60;;;;;;;5.74;72.78;102013.13;4974702;28;20589;-72
2021/04/18 00:53:13;;;;;;;6.30;3.60;;;;;;;5.76;72.65;102013.00;4974805;28;20042;-72
2021/04/18 00:55:41;;;;;;;10.80;3.73;;;;;;;5.78;72.28;102008.44;4974909;28;20046;-72
2021/04/18 00:58:07;;;;;;;10.40;3.72;;;;;;;5.76;72.30;102005.03;4991336;28;20038;-72
2021/04/18 01:00:34;;;;;;;6.07;3.28;;;;;;;5.79;71.77;102003.06;4991925;28;20030;-71
2021/04/18 01:02:59;;;;;;;11.38;3.35;;;;;;;5.77;71.94;102004.13;4991906;28;20037;-72
2021/04/18 01:05:26;;;;;;;9.25;3.75;;;;;;;5.77;71.85;102006.75;4992016;28;20069;-71
2021/04/18 01:07:52;;;;;;;13.32;4.65;;;;;;;5.69;71.48;102004.63;4974390;28;20042;-72
2021/04/18 01:10:19;;;;;;;11.25;3.80;;;;;;;5.74;70.90;102001.69;4975027;28;20486;-72
2021/04/18 01:12:45;;;;;;;11.52;3.45;;;;;;;5.72;70.87;101999.97;4974409;28;20125;-71
2021/04/18 01:15:12;;;;;;;8.38;2.78;;;;;;;5.66;70.50;102004.81;4991861;28;20057;-72
2021/04/18 01:17:38;;;;;;;7.68;3.67;;;;;;;5.63;70.33;101999.72;4974144;28;20054;-72
2021/04/18 01:20:11;;;;;;;10.98;3.22;;;;;;;5.59;70.22;101995.56;4974604;28;20497;-72
2021/04/18 01:22:37;;;;;;;12.05;3.55;;;;;;;5.58;70.14;102001.81;4974385;28;20452;-72
2021/04/18 01:25:25;;;;;;;11.00;4.45;;;;;;;5.54;69.86;101995.00;4974414;28;20036;-72
2021/04/18 01:27:55;;;;;;;14.00;3.78;;;;;;;5.49;70.14;101993.50;4991325;28;20471;-72
2021/04/18 01:30:26;;;;;;;9.38;3.42;;;;;;;5.54;69.52;101989.72;4991658;28;20050;-72
2021/04/18 01:32:54;;;;;;;12.13;3.47;;;;;;;5.49;69.37;101998.78;4991497;28;20037;-72
2021/04/18 01:35:19;;;;;;;9.98;4.18;;;;;;;5.58;69.52;101991.22;4991580;28;20360;-72
2021/04/18 01:37:46;;;;;;;9.00;3.10;;;;;;;5.50;69.64;101992.56;4974115;28;20489;-73
2021/04/18 01:40:17;;;;;;;7.97;2.70;;;;;;;5.49;69.67;101993.50;4995440;28;20038;-72
2021/04/18 01:42:45;;;;;;;5.47;3.25;;;;;;;5.50;69.42;101995.22;4977996;28;20431;-72
2021/04/18 01:45:11;;;;;;;11.65;3.72;;;;;;;5.46;69.52;101988.41;4995293;28;20034;-72
2021/04/18 01:47:38;;;;;;;;;;;;;;;5.42;69.51;101994.84;4962023;28;20451;-72
2021/04/18 01:50:06;;;;;;;7.68;3.10;;;;;;;5.40;69.56;101993.25;4995203;28;19913;-71
2021/04/18 01:52:32;;;;;;;6.97;3.83;;;;;;;5.32;69.49;101992.91;4977687;28;20049;-72
2021/04/18 01:54:58;;;;;;;9.38;3.67;;;;;;;5.27;69.30;101988.75;4977816;28;20038;-72
2021/04/18 01:57:23;;;;;;;6.47;3.00;;;;;;;5.27;69.47;101994.03;4994973;28;20030;-72
2021/04/18 01:59:49;;;;;;;10.10;2.57;;;;;;;5.24;69.49;101994.25;4994847;28;20030;-72
2021/04/18 02:02:43;;;;;;;8.63;2.85;;;;;;;5.14;69.14;101993.09;4994858;28;20301;-72
2021/04/18 02:05:29;;;;;;;6.93;2.65;;;;;;;5.24;69.03;101993.38;4977795;28;20038;-71
2021/04/18 02:07:56;;;;;;;6.85;2.70;;;;;;;5.23;68.41;101986.38;4977451;28;20502;-72
2021/04/18 02:10:22;;;;;;;12.13;3.40;;;;;;;5.26;68.54;101988.81;4977637;28;20030;-72
2021/04/18 02:12:48;;;;;;;9.32;3.33;;;;;;;5.20;68.53;101999.81;4994818;28;20030;-72
2021/04/18 02:15:17;;;;;;;6.45;2.83;;;;;;;5.15;68.98;101993.94;4977400;28;20038;-71
2021/04/18 02:17:43;;;;;;;8.55;3.40;;;;;;;5.16;68.55;101993.00;4977215;28;20067;-72
2021/04/18 02:20:10;;;;;;;8.25;2.65;;;;;;;5.11;68.37;101993.31;4977449;28;20034;-72
2021/04/18 02:22:35;;;;;;;14.65;4.63;;;;;;;5.06;68.95;101996.25;4994568;28;20070;-71
2021/04/18 02:25:02;;;;;;;8.67;3.63;;;;;;;5.01;69.21;101993.03;4994383;28;20034;-72
2021/04/18 02:27:28;;;;;;;9.35;3.38;;;;;;;4.92;69.44;101990.13;4976897;28;20038;-72
2021/04/18 02:30:03;;;;;;;17.80;5.75;;;;;;;4.85;69.78;101994.94;4994369;28;20066;-72
2021/04/18 02:32:32;;;;;;;13.38;5.18;;;;;;;4.82;69.64;101989.81;4994505;28;20034;-72
2021/04/18 02:35:02;;;;;;;9.88;3.63;;;;;;;4.79;69.80;101984.72;4994159;28;20038;-72
2021/04/18 02:37:27;;;;;;;11.80;3.42;;;;;;;4.79;70.14;101982.91;4994105;28;20031;-71
2021/04/18 02:39:53;;;;;;;11.20;3.70;;;;;;;4.74;70.35;101989.44;4976858;28;20038;-72
2021/04/18 02:42:19;;;;;;;7.30;2.77;;;;;;;4.76;70.22;101977.81;4977005;28;20085;-72
2021/04/18 02:44:45;;;;;;;8.63;3.15;;;;;;;4.72;70.16;101975.47;4976832;28;20045;-72
2021/04/18 02:47:11;;;;;;;7.38;3.10;;;;;;;4.71;70.46;101971.13;4960896;28;20038;-72
2021/04/18 02:49:42;;;;;;;7.22;2.15;;;;;;;4.68;70.87;101973.94;4975961;28;20049;-71
2021/04/18 02:52:09;;;;;;;6.20;2.50;;;;;;;4.65;70.58;101974.97;4976592;28;20046;-71
2021/04/18 02:54:35;;;;;;;5.65;3.10;;;;;;;4.59;70.71;101965.63;4976964;28;20129;-72
2021/04/18 02:57:03;;;;;;;8.55;2.63;;;;;;;4.57;70.93;101972.81;4960861;28;20045;-72
2021/04/18 02:59:28;;;;;;;11.30;3.97;;;;;;;4.52;70.71;101976.66;4976471;28;20038;-72
2021/04/18 03:01:55;;;;;;;9.20;3.40;;;;;;;4.48;71.05;101972.53;4976851;28;20030;-72
2021/04/18 03:04:20;;;;;;;5.78;3.63;;;;;;;4.47;71.29;101970.81;4976689;28;20418;-72
2021/04/18 03:06:46;;;;;;;12.30;3.10;;;;;;;4.46;71.04;101969.97;4976619;28;20042;-72
2021/04/18 03:09:11;;;;;;;9.93;3.77;;;;;;;4.43;71.36;101973.66;4976415;28;20041;-71
2021/04/18 03:11:42;;;;;;;5.75;2.55;;;;;;;4.40;71.85;101975.59;4976342;28;20042;-71
2021/04/18 03:14:20;;;;;;;15.25;3.90;;;;;;;4.39;72.00;101976.56;4976498;28;20026;-71
2021/04/18 03:16:46;;;;;;;11.77;3.30;;;;;;;4.39;71.86;101973.91;4976392;28;20519;-72
2021/04/18 03:19:12;;;;;;;12.25;2.78;;;;;;;4.36;71.76;101972.31;4976103;28;20030;-71
2021/04/18 03:21:37;;;;;;;7.60;3.47;;;;;;;4.36;71.89;101969.66;4976369;28;20046;-72
2021/04/18 03:24:04;;;;;;;19.50;3.83;;;;;;;4.37;72.03;101976.66;4993162;28;20046;-71
2021/04/18 03:26:30;;;;;;;9.98;3.85;;;;;;;4.42;71.69;101973.72;4976140;28;20034;-71
2021/04/18 03:28:59;;;;;;;8.82;2.90;;;;;;;4.40;71.64;101968.56;4960345;28;20041;-71
2021/04/18 03:31:26;;;;;;;14.35;3.70;;;;;;;4.39;71.62;101973.91;4960107;28;20034;-72
2021/04/18 03:33:58;;;;;;;10.18;3.45;;;;;;;4.40;71.82;101971.19;4993405;28;20126;-72
2021/04/18 03:36:24;;;;;;;8.90;3.42;;;;;;;4.42;71.70;101973.72;4976012;28;20034;-71
2021/04/18 03:38:52;;;;;;;9.80;2.72;;;;;;;4.42;71.68;101963.16;4975630;28;20546;-72
2021/04/18 03:41:22;;;;;;;12.90;3.45;;;;;;;4.42;71.79;101971.09;4975861;28;20041;-72
2021/04/18 03:43:49;;;;;;;8.73;2.60;;;;;;;4.43;71.60;101965.72;4975580;28;20034;-72
2021/04/18 03:46:18;;;;;;;8.27;2.65;;;;;;;4.40;71.19;101967.69;4992413;28;20041;-72
2021/04/18 03:48:47;;;;;;;9.35;3.92;;;;;;;4.42;71.20;101960.50;4992591;28;20034;-72
2021/04/18 03:51:13;;;;;;;13.45;3.05;;;;;;;4.46;70.95;101969.97;4992586;28;20108;-72
2021/04/18 03:53:56;;;;;;;9.07;3.38;;;;;;;4.44;70.85;101955.97;4975735;28;20464;-72
2021/04/18 03:56:27;;;;;;;8.35;3.13;;;;;;;4.48;70.62;101964.59;4975703;28;20049;-71
2021/04/18 03:58:52;;;;;;;6.67;2.63;;;;;;;4.57;70.49;101971.97;4975395;28;20042;-71
2021/04/18 04:01:21;;;;;;;12.80;3.63;;;;;;;4.54;70.21;101956.25;4992090;28;20065;-71
2021/04/18 04:03:46;;;;;;;6.30;2.57;;;;;;;4.54;70.39;101962.44;4992125;28;20543;-72
2021/04/18 04:06:12;;;;;;;6.32;2.50;;;;;;;4.47;70.43;101955.78;4975471;28;20096;-71
2021/04/18 04:08:39;;;;;;;8.65;3.40;;;;;;;4.45;70.57;101955.06;4992443;28;20151;-71
2021/04/18 04:11:07;;;;;;;4.35;2.03;;;;;;;4.40;70.40;101962.38;4975214;28;20049;-71
2021/04/18 04:13:37;;;;;;;6.80;2.65;;;;;;;4.39;70.46;101958.91;4975459;28;20340;-71
2021/04/18 04:16:03;;;;;;;8.10;2.90;;;;;;;4.42;70.67;101952.56;4975172;28;20041;-72
2021/04/18 04:18:30;;;;;;;6.25;3.03;;;;;;;4.42;70.75;101968.44;4974935;28;20047;-71
2021/04/18 04:21:16;;;;;;;6.22;2.78;;;;;;;4.40;70.67;101963.25;4975322;28;20034;-71
2021/04/18 04:23:51;;;;;;;7.82;2.63;;;;;;;4.48;70.21;101949.56;4975098;28;20121;-71
2021/04/18 04:26:16;;;;;;;11.00;2.63;;;;;;;4.55;70.09;101957.97;4990546;28;20129;-71
2021/04/18 04:28:42;;;;;;;9.50;2.87;;;;;;;4.54;69.53;101961.56;4990328;28;20490;-71
2021/04/18 04:31:07;;;;;;;7.77;2.60;;;;;;;4.62;69.55;101960.16;4990674;28;20081;-71
2021/04/18 04:33:34;;;;;;;9.03;2.10;;;;;;;4.61;69.54;101969.03;4973393;28;20037;-72
2021/04/18 04:36:00;;;;;;;8.93;2.67;;;;;;;4.62;69.99;101970.72;4973343;28;20026;-71
2021/04/18 04:38:25;;;;;;;6.75;2.13;;;;;;;4.64;69.86;101966.19;4973857;28;20341;-71
2021/04/18 04:40:50;;;;;;;3.15;1.92;;;;;;;4.64;69.38;101963.56;4975043;28;20101;-72
2021/04/18 04:43:16;;;;;;;8.30;2.13;;;;;;;4.63;69.61;101963.63;4991562;28;20092;-72
2021/04/18 04:45:41;;;;;;;9.53;2.33;;;;;;;4.71;69.50;101965.84;4974782;28;20045;-72
2021/04/18 04:48:07;;;;;;;7.60;2.37;;;;;;;4.74;69.39;101968.28;4990874;28;20057;-72
2021/04/18 04:50:32;;;;;;;7.63;2.58;;;;;;;4.78;69.20;101959.22;4991187;28;20042;-72
2021/04/18 04:52:57;;;;;;;9.97;2.37;;;;;;;4.78;69.53;101959.22;4991998;28;20038;-72
2021/04/18 04:55:23;;;;;;;12.80;2.30;;;;;;;4.80;69.88;101955.53;4991889;28;20097;-72
2021/04/18 04:57:48;;;;;;;8.03;2.83;;;;;;;4.79;70.23;101960.91;4974362;28;20192;-72
2021/04/18 05:00:14;;;;;;;6.47;1.97;;;;;;;4.82;70.26;101960.69;4991778;28;20045;-72
2021/04/18 05:02:39;;;;;;;12.32;2.50;;;;;;;5.58;69.62;101954.97;4974691;28;20038;-72
2021/04/18 05:05:05;;;;;;;6.17;2.60;;;;;;;6.26;69.16;101956.63;4991921;28;20042;-72
2021/04/18 05:07:31;;;;;;;6.05;2.78;;;;;;;6.25;66.02;101960.25;4974368;28;20467;-72
2021/04/18 05:09:56;;;;;;;8.27;2.80;;;;;;;5.95;66.77;101965.81;4974658;28;20045;-72
2021/04/18 05:12:21;;;;;;;13.70;2.63;;;;;;;5.73;66.80;101958.41;4974301;28;20069;-72
2021/04/18 05:14:47;;;;;;;11.57;2.73;;;;;;;5.61;67.01;101961.88;4978047;28;20036;-72
2021/04/18 05:17:12;;;;;;;11.57;2.40;;;;;;;5.52;67.68;101963.31;4995810;28;20038;-71
2021/04/18 05:19:37;;;;;;;5.80;2.20;;;;;;;5.46;68.17;101967.22;4995587;28;20129;-71
2021/04/18 05:22:03;;;;;;;5.70;2.30;;;;;;;5.59;67.30;101974.34;4978524;28;20069;-72
2021/04/18 05:24:28;;;;;;;13.60;3.03;;;;;;;5.58;67.36;101976.16;4978296;28;20042;-71
2021/04/18 05:26:54;;;;;;;5.33;2.67;;;;;;;5.61;67.62;101964.50;4995557;28;20030;-71
2021/04/18 05:29:19;;;;;;;7.37;3.10;;;;;;;6.03;66.83;101970.59;4978137;28;20277;-71
2021/04/18 05:31:46;;;;;;;8.57;2.20;;;;;;;7.34;62.67;101959.69;4978640;28;20519;-71
2021/04/18 05:34:11;;;;;;;;;;;;;;;8.11;59.71;101964.59;4995772;28;20062;-71
2021/04/18 05:36:36;;;;;;;4.93;2.45;;;;;;;8.19;59.30;101967.53;4978420;28;19987;-71
2021/04/18 05:39:05;;;;;;;9.50;2.17;;;;;;;7.51;60.56;101972.56;4977734;28;20034;-71
2021/04/18 05:41:31;;;;;;;6.07;3.28;;;;;;;7.09;62.46;101976.53;4977972;28;20066;-71
2021/04/18 05:43:56;;;;;;;12.13;2.37;;;;;;;6.88;63.37;101969.16;4995198;28;20093;-71
2021/04/18 05:46:21;;;;;;;8.03;2.80;;;;;;;8.02;60.76;101964.31;4978102;28;20303;-71
2021/04/18 05:48:47;;;;;;;4.37;1.93;;;;;;;8.86;58.31;101967.63;4994917;28;20046;-71
2021/04/18 05:51:12;;;;;;;5.33;2.27;;;;;;;9.81;58.46;101959.06;4961954;28;20128;-71
2021/04/18 05:53:37;;;;;;;7.50;3.07;;;;;;;10.63;54.17;101954.84;4994948;28;20129;-71
2021/04/18 05:56:03;;;;;;;8.40;2.60;;;;;;;10.37;52.61;101954.41;4994976;28;20069;-71
2021/04/18 05:58:29;;;;;;;9.03;3.53;;;;;;;10.52;52.36;101959.28;4994500;28;20045;-71
2021/04/18 06:00:55;;;;;;;6.43;2.17;;;;;;;10.94;50.37;101963.69;4977990;28;20051;-71
2021/04/18 06:03:20;;;;;;;5.40;1.90;;;;;;;10.83;50.74;101964.63;4993805;28;20399;-71
2021/04/18 06:05:45;;;;;;;7.30;1.90;;;;;;;11.49;48.69;101963.25;4994736;28;20057;-71
2021/04/18 06:08:11;;;;;;;8.43;2.60;;;;;;;11.60;49.37;101965.81;4994695;28;20078;-71
2021/04/18 06:10:36;;;;;;;9.10;2.40;;;;;;;11.76;48.26;101974.13;4994598;28;20121;-71
2021/04/18 06:13:01;;;;;;;4.80;1.97;;;;;;;11.75;48.07;101969.78;4976646;28;20034;-71
2021/04/18 06:15:27;;;;;;;9.83;2.30;;;;;;;12.08;47.77;101973.03;4994241;28;20632;-71
2021/04/18 06:17:53;;;;;;;5.90;2.35;;;;;;;12.13;47.79;101973.44;4994489;28;20121;-71
2021/04/18 06:20:19;;;;;;;5.25;2.25;;;;;;;12.18;47.00;101973.84;4977054;28;20109;-71
2021/04/18 06:22:44;;;;;;;8.35;2.90;;;;;;;12.10;47.26;101972.88;4993766;28;20084;-71
2021/04/18 06:25:10;;;;;;;5.83;2.77;;;;;;;12.19;46.56;101978.22;4975267;28;20038;-71
2021/04/18 06:27:36;;;;;;;5.38;2.38;;;;;;;11.65;48.05;101976.94;4976995;28;20053;-71
2021/04/18 06:30:03;;;;;;;4.87;2.53;;;;;;;11.44;48.39;101974.38;4977280;28;20050;-70
2021/04/18 06:32:28;;;;;;;6.82;2.58;;;;;;;11.35;48.68;101978.72;4961162;28;20464;-71
2021/04/18 06:34:53;;;;;;;6.27;2.13;;;;;;;11.76;48.63;101984.84;4994515;28;20113;-71
2021/04/18 06:37:18;;;;;;;14.80;2.63;;;;;;;12.06;47.58;101977.69;4977166;28;20030;-71
2021/04/18 06:39:44;;;;;;;6.60;2.67;;;;;;;12.16;47.64;101980.34;4994027;28;20044;-71
2021/04/18 06:42:14;;;;;;;5.38;2.40;;;;;;;11.91;47.93;101973.72;4976854;28;20045;-71
2021/04/18 06:44:39;;;;;;;6.18;2.55;;;;;;;11.59;48.90;101980.19;4976900;28;20038;-71
2021/04/18 06:47:05;;;;;;;5.90;2.22;;;;;;;11.81;48.55;101976.38;4994022;28;20434;-71
2021/04/18 06:49:30;;;;;;;6.60;2.40;;;;;;;11.77;48.56;101975.81;4993656;28;20380;-71
2021/04/18 06:51:58;;;;;;;5.30;2.53;;;;;;;12.13;47.28;101973.44;4994130;28;20109;-71
2021/04/18 06:54:24;;;;;;;7.97;2.55;;;;;;;10.65;50.01;101969.78;4993864;28;20034;-71
2021/04/18 06:56:50;;;;;;;6.70;3.43;;;;;;;10.47;49.87;101960.69;4993952;28;20104;-71
2021/04/18 06:59:15;;;;;;;5.50;2.03;;;;;;;11.23;50.71;101965.59;4976628;28;20093;-70
2021/04/18 07:01:41;;;;;;;6.63;2.60;;;;;;;11.81;47.91;101961.16;4993903;28;20042;-71
2021/04/18 07:04:08;;;;;;;2.67;1.95;;;;;;;11.24;50.17;101962.81;4960485;28;20030;-70
2021/04/18 07:06:38;;;;;;;6.88;2.50;;;;;;;11.86;48.86;101960.75;4976654;28;20046;-70
2021/04/18 07:09:03;;;;;;;5.53;2.28;;;;;;;10.96;49.08;101961.75;4976312;28;20057;-71
2021/04/18 07:11:41;;;;;;;5.63;2.27;;;;;;;11.03;49.95;101959.34;4976622;28;20038;-71
2021/04/18 07:14:22;;;;;;;9.40;2.33;;;;;;;11.74;49.67;101967.22;4992831;28;20363;-70
2021/04/18 07:16:48;;;;;;;5.88;2.55;;;;;;;11.98;48.37;101969.50;4976583;28;20054;-70
2021/04/18 07:19:25;;;;;;;5.78;2.40;;;;;;;11.99;48.31;101972.06;4993384;28;20053;-70
2021/04/18 07:21:55;;;;;;;6.10;2.05;;;;;;;12.32;47.51;101974.41;4976492;28;20474;-71
2021/04/18 07:24:22;;;;;;;4.35;1.77;;;;;;;12.63;46.17;101967.00;4976072;28;20044;-71
2021/04/18 07:26:59;;;;;;;5.45;1.80;;;;;;;13.20;45.48;101953.44;4993397;28;20057;-71
2021/04/18 07:29:26;;;;;;;4.07;2.13;;;;;;;12.97;45.44;101961.91;4992975;28;20419;-71
2021/04/18 07:31:53;;;;;;;3.95;1.90;;;;;;;12.92;45.54;101966.03;4993233;28;20436;-71
2021/04/18 07:34:21;;;;;;;4.45;1.55;;;;;;;13.13;44.38;101963.94;4992898;28;20049;-71
2021/04/18 07:36:49;;;;;;;4.03;1.85;;;;;;;13.08;44.06;101960.84;4975920;28;20038;-71
2021/04/18 07:39:16;;;;;;;8.05;2.05;;;;;;;13.15;43.83;101959.25;4975538;28;20041;-71
2021/04/18 07:41:43;;;;;;;7.28;2.40;;;;;;;12.83;44.14;101959.69;4993043;28;20084;-71
2021/04/18 07:44:15;;;;;;;10.13;2.30;;;;;;;12.84;43.99;101961.41;4976018;28;20046;-71
2021/04/18 07:46:50;;;;;;;4.35;1.77;;;;;;;12.65;44.55;101957.81;4992904;28;20447;-71
2021/04/18 07:49:17;;;;;;;3.30;1.70;;;;;;;12.80;44.23;101949.28;4992767;28;20038;-71
2021/04/18 07:51:45;;;;;;;7.85;2.03;;;;;;;12.79;43.68;101950.28;4992698;28;20100;-71
2021/04/18 07:54:13;;;;;;;6.00;1.70;;;;;;;13.13;43.61;101957.72;4992815;28;20026;-71
2021/04/18 07:56:42;;;;;;;5.43;2.35;;;;;;;12.96;44.44;101949.50;4992611;28;20046;-71
2021/04/18 07:59:08;;;;;;;4.63;2.00;;;;;;;12.88;44.29;101950.25;4975267;28;20046;-71
2021/04/18 08:01:34;;;;;;;6.13;1.90;;;;;;;13.22;44.63;101951.47;4975589;28;20022;-71
2021/04/18 08:03:59;;;;;;;3.23;1.63;;;;;;;13.79;43.15;101953.91;4992689;28;20061;-71
2021/04/18 08:06:26;;;;;;;5.27;2.10;;;;;;;13.73;42.71;101947.31;4992511;28;20070;-71
2021/04/18 08:08:53;;;;;;;5.07;2.25;;;;;;;13.92;41.79;101955.22;4992110;28;20070;-71
2021/04/18 08:11:21;;;;;;;5.65;2.20;;;;;;;13.68;42.40;101949.63;4975427;28;20046;-71
2021/04/18 08:13:49;;;;;;;6.75;1.95;;;;;;;13.15;43.29;101939.66;4975210;28;20092;-71
2021/04/18 08:16:29;;;;;;;5.85;2.78;;;;;;;13.56;43.65;101950.88;4975441;28;20121;-71
2021/04/18 08:19:06;;;;;;;4.40;2.33;;;;;;;13.70;42.53;101943.13;4975131;28;20050;-71
2021/04/18 08:21:35;;;;;;;5.43;1.67;;;;;;;14.36;42.56;101944.44;4992501;28;20046;-71
2021/04/18 08:24:26;;;;;;;6.40;2.75;;;;;;;14.58;42.00;101950.31;4974914;28;20049;-71
2021/04/18 08:27:08;;;;;;;5.38;2.28;;;;;;;15.18;40.36;101944.03;4969786;28;20057;-71
2021/04/18 08:30:09;;;;;;;7.60;2.53;;;;;;;15.35;40.16;101955.69;4992085;28;20070;-71
2021/04/18 08:32:43;;;;;;;5.40;2.28;;;;;;;15.50;39.61;101954.03;4951453;29;20062;-71
2021/04/18 08:35:18;;;;;;;3.88;2.13;;;;;;;15.85;38.61;101954.78;4972085;28;20050;-71
2021/04/18 08:37:43;;;;;;;6.35;2.55;;;;;;;15.62;39.00;101958.09;4991878;28;20495;-71
2021/04/18 08:40:10;;;;;;;5.87;1.80;;;;;;;15.38;38.46;101966.09;4992040;28;20044;-71
2021/04/18 08:42:36;;;;;;;7.38;2.10;;;;;;;14.86;39.76;101966.25;4974925;28;20081;-71
2021/04/18 08:45:04;;;;;;;11.02;2.72;;;;;;;15.37;39.69;101953.66;4974835;28;20798;-71
2021/04/18 08:47:32;;;;;;;4.97;2.20;;;;;;;15.11;39.28;101953.75;4991395;28;20117;-71
2021/04/18 08:50:14;;;;;;;6.15;2.08;;;;;;;14.23;40.88;101956.63;4974726;28;20061;-71
2021/04/18 08:52:40;;;;;;;4.25;2.05;;;;;;;15.18;40.46;101960.16;4990702;28;20466;-71
2021/04/18 08:55:14;;;;;;;4.20;2.00;;;;;;;15.73;38.37;101958.78;4974844;28;20105;-71
2021/04/18 08:57:39;;;;;;;6.72;2.22;;;;;;;16.18;38.08;101962.84;4990432;28;20523;-71
2021/04/18 09:00:11;;;;;;;3.30;2.00;;;;;;;16.54;37.62;101967.84;4974845;28;20129;-71
2021/04/18 09:02:36;;;;;;;7.13;2.13;;;;;;;16.66;37.37;101963.75;4958475;28;20045;-71
2021/04/18 09:05:05;;;;;;;7.00;2.45;;;;;;;16.63;35.68;101966.81;4974809;28;20034;-72
2021/04/18 09:07:35;;;;;;;3.17;1.77;;;;;;;16.90;35.46;101962.03;4991335;28;20155;-71
2021/04/18 09:10:07;;;;;;;4.25;1.75;;;;;;;16.28;35.92;101960.81;4974714;28;20121;-71
2021/04/18 09:12:32;;;;;;;6.43;2.00;;;;;;;16.45;35.89;101956.22;4974386;28;20133;-72
2021/04/18 09:14:58;;;;;;;5.93;2.63;;;;;;;16.69;34.42;101960.69;4974747;28;20038;-72
2021/04/18 09:17:28;;;;;;;3.23;2.00;;;;;;;16.75;35.10;101972.66;4974622;28;20097;-72
2021/04/18 09:19:56;;;;;;;3.78;1.60;;;;;;;17.21;33.91;101964.75;4991744;28;20034;-71
2021/04/18 09:22:24;;;;;;;6.43;3.08;;;;;;;16.69;34.56;101974.19;4974285;28;20070;-72
2021/04/18 09:24:49;;;;;;;5.63;2.03;;;;;;;17.03;34.76;101962.31;4991507;28;20046;-71
2021/04/18 09:27:26;;;;;;;4.93;2.27;;;;;;;16.55;34.99;101964.13;4991612;28;20038;-72
2021/04/18 09:29:59;;;;;;;5.05;1.92;;;;;;;17.16;34.44;101964.44;4991611;28;20138;-72
2021/04/18 09:32:30;;;;;;;4.00;2.25;;;;;;;17.66;34.00;101953.16;4974560;28;20049;-72
2021/04/18 09:34:56;;;;;;;6.97;1.85;;;;;;;17.51;34.56;101958.50;4974479;28;20061;-72
2021/04/18 09:37:29;;;;;;;5.20;1.98;;;;;;;17.51;33.37;101954.94;4974555;28;20509;-72
2021/04/18 09:39:59;;;;;;;3.05;2.08;;;;;;;17.56;35.96;101951.72;4974591;28;20591;-72
2021/04/18 09:42:29;;;;;;;8.10;2.38;;;;;;;18.16;34.61;101955.50;4991355;28;20038;-72
2021/04/18 09:45:11;;;;;;;6.28;2.28;;;;;;;17.96;35.33;101950.59;4958285;28;20045;-72
2021/04/18 09:47:37;;;;;;;9.80;2.65;;;;;;;17.95;35.13;101948.91;4991144;28;20038;-72
2021/04/18 09:50:06;;;;;;;4.93;2.33;;;;;;;17.71;35.35;101937.25;4974374;28;20049;-72
2021/04/18 09:52:36;;;;;;;7.25;2.67;;;;;;;18.10;35.81;101941.69;4973983;28;20039;-72
2021/04/18 09:55:10;;;;;;;4.97;2.88;;;;;;;18.34;34.99;101937.91;4958179;28;20485;-72
2021/04/18 09:57:41;;;;;;;10.25;2.80;;;;;;;18.16;35.53;101937.41;4989967;28;20065;-72
2021/04/18 10:00:11;;;;;;;5.47;2.90;;;;;;;18.46;34.66;101945.56;4974575;28;20038;-72
2021/04/18 10:02:37;;;;;;;5.97;2.28;;;;;;;18.61;35.47;101945.56;4977689;28;20042;-72
2021/04/18 10:05:08;;;;;;;9.02;2.72;;;;;;;18.72;35.62;101939.69;4961671;28;20026;-72
2021/04/18 10:07:34;;;;;;;5.32;3.20;;;;;;;18.41;35.50;101940.72;4977486;28;20348;-72
2021/04/18 10:09:59;;;;;;;8.40;3.17;;;;;;;18.73;36.07;101935.94;4961698;28;20045;-72
2021/04/18 10:12:24;;;;;;;5.73;3.37;;;;;;;18.97;34.71;101941.09;4961527;28;20049;-72
2021/04/18 10:15:05;;;;;;;4.17;2.70;;;;;;;19.26;35.24;101938.50;4977583;28;20026;-72
2021/04/18 10:17:35;;;;;;;7.88;3.25;;;;;;;18.74;35.82;101945.75;4977296;28;20542;-72
2021/04/18 10:20:02;;;;;;;7.05;3.75;;;;;;;18.94;35.46;101936.06;4994692;28;20421;-72
2021/04/18 10:22:28;;;;;;;9.30;3.85;;;;;;;18.70;36.28;101934.44;4994663;28;20487;-72
2021/04/18 10:24:53;;;;;;;4.47;3.58;;;;;;;18.63;36.27;101938.94;4973821;28;20043;-73
2021/04/18 10:27:21;;;;;;;7.77;3.43;;;;;;;18.19;37.88;101945.16;4974117;28;20039;-73
2021/04/18 10:29:47;;;;;;;5.22;3.90;;;;;;;17.79;38.13;101935.50;4974868;28;20365;-72
2021/04/18 10:32:13;;;;;;;5.18;3.25;;;;;;;17.86;38.51;101936.50;4958002;28;20045;-72
2021/04/18 10:34:38;;;;;;;9.95;4.00;;;;;;;17.62;39.14;101935.63;4974882;28;20368;-73
2021/04/18 10:37:05;;;;;;;10.07;3.53;;;;;;;17.29;40.87;101935.00;4974887;28;20368;-72
2021/04/18 10:39:32;;;;;;;7.88;4.43;;;;;;;17.44;40.45;101935.09;4973454;28;20101;-73
2021/04/18 10:41:57;;;;;;;5.60;3.90;;;;;;;17.78;39.29;101940.06;4974770;28;20078;-72
2021/04/18 10:44:24;;;;;;;9.87;4.50;;;;;;;17.85;38.85;101945.63;4974452;28;20081;-73
2021/04/18 10:46:54;;;;;;;7.47;4.20;;;;;;;17.74;39.87;101946.84;4974815;28;20043;-73
2021/04/18 10:49:20;;;;;;;6.68;4.05;;;;;;;17.08;41.91;101943.72;4973372;28;20039;-73
2021/04/18 10:51:47;;;;;;;8.55;4.40;;;;;;;17.29;41.15;101954.75;4974707;28;20416;-73
2021/04/18 10:54:12;;;;;;;8.07;3.97;;;;;;;17.42;40.60;101958.72;4974573;28;20042;-73
2021/04/18 10:56:38;;;;;;;5.57;4.10;;;;;;;16.09;44.15;101945.00;4973538;28;20050;-73
2021/04/18 10:59:03;;;;;;;11.70;4.97;;;;;;;17.34;41.60;101945.28;4973207;28;20062;-73
2021/04/18 11:01:29;;;;;;;5.83;3.70;;;;;;;18.39;40.28;101931.94;4973634;28;20345;-73
2021/04/18 11:03:54;;;;;;;12.47;4.40;;;;;;;18.47;39.81;101933.72;4973391;28;20838;-73
2021/04/18 11:06:19;;;;;;;6.53;3.77;;;;;;;18.55;38.15;101928.22;4974467;28;20039;-73
2021/04/18 11:08:45;;;;;;;8.67;4.33;;;;;;;19.13;37.43;101922.97;4974080;28;20030;-74
2021/04/18 11:11:11;;;;;;;7.07;3.67;;;;;;;19.47;37.90;101934.97;4973953;28;20034;-74
2021/04/18 11:13:37;;;;;;;;;;;;;;;19.43;37.34;101936.38;4973749;28;20035;-73
2021/04/18 11:16:02;;;;;;;;;;;;;;;19.32;37.81;101925.03;4957731;28;19929;-74
2021/04/18 11:18:27;;;;;;;;;;;;;;;19.31;37.27;101927.94;4957299;28;19933;-73
2021/04/18 11:20:53;;;;;;;;;;;;;;;18.10;37.76;101925.47;4974632;28;19918;-73
2021/04/18 11:23:18;;;;;;;;;;;;;;;18.83;36.87;101920.31;4973362;28;19933;-74
2021/04/18 11:25:43;;;;;;;;;;;;;;;18.61;37.30;101924.75;4957257;28;19914;-73
2021/04/18 11:28:08;;;;;;;;;;;;;;;19.11;37.19;101922.31;4974184;28;19910;-74
2021/04/18 11:30:34;;;;;;;;;;;;;;;18.49;38.29;101918.97;4974516;28;20012;-74
2021/04/18 11:32:59;;;;;;;;;;;;;;;19.07;38.51;101919.13;4974194;28;20236;-73
2021/04/18 11:35:24;;;;;;;;;;;;;;;19.49;37.32;101913.97;4973320;28;19914;-74